createdAt,value
2023-04-01T00:00:37.433Z,9.40
2023-04-01T00:03:04.439Z,9.40
2023-04-01T00:05:31.316Z,9.40
2023-04-01T00:07:58.214Z,9.40
2023-04-01T00:10:24.924Z,9.50
2023-04-01T00:12:51.815Z,9.50
2023-04-01T00:15:18.613Z,9.50
2023-04-01T00:17:45.723Z,9.40
2023-04-01T00:20:13.261Z,9.50
2023-04-01T00:22:40.001Z,9.50
2023-04-01T00:25:07.050Z,9.50
2023-04-01T00:27:33.755Z,9.50
2023-04-01T00:30:00.492Z,9.50
2023-04-01T00:32:27.625Z,9.50
2023-04-01T00:34:54.386Z,9.50
2023-04-01T00:37:22.068Z,9.50
2023-04-01T00:39:48.751Z,9.50
2023-04-01T00:42:15.536Z,9.50
2023-04-01T00:44:43.309Z,9.50
2023-04-01T00:47:10.606Z,9.50
2023-04-01T00:49:41.577Z,9.50
2023-04-01T00:52:10.529Z,9.60
2023-04-01T00:54:38.486Z,9.60
2023-04-01T00:57:13.046Z,9.60
2023-04-01T00:59:51.600Z,9.70
2023-04-01T01:02:19.364Z,9.70
2023-04-01T01:04:46.770Z,9.70
2023-04-01T01:07:25.449Z,9.70
2023-04-01T01:10:08.822Z,9.70
2023-04-01T01:13:00.178Z,9.70
2023-04-01T01:15:41.905Z,9.60
2023-04-01T01:18:21.563Z,9.60
2023-04-01T01:21:25.894Z,9.60
2023-04-01T01:24:09.794Z,9.60
2023-04-01T01:26:51.599Z,9.60
2023-04-01T01:29:44.921Z,9.60
2023-04-01T01:32:26.743Z,9.50
2023-04-01T01:34:56.538Z,9.50
2023-04-01T01:37:26.232Z,9.50
2023-04-01T01:39:57.893Z,9.50
2023-04-01T01:42:28.105Z,9.50
2023-04-01T01:44:57.598Z,9.50
2023-04-01T01:47:26.186Z,9.50
2023-04-01T01:49:55.756Z,9.40
2023-04-01T01:52:24.108Z,9.50
2023-04-01T01:54:54.359Z,9.50
2023-04-01T01:57:44.938Z,9.40
2023-04-01T02:00:15.938Z,9.40
2023-04-01T02:02:47.488Z,9.40
2023-04-01T02:05:21.726Z,9.40
2023-04-01T02:07:56.427Z,9.40
2023-04-01T02:10:25.916Z,9.40
2023-04-01T02:12:57.707Z,9.40
2023-04-01T02:15:27.128Z,9.40
2023-04-01T02:17:54.886Z,9.40
2023-04-01T02:20:24.253Z,9.40
2023-04-01T02:22:54.108Z,9.40
2023-04-01T02:25:30.884Z,9.40
2023-04-01T02:28:00.602Z,9.30
2023-04-01T02:30:30.114Z,9.30
2023-04-01T02:32:59.006Z,9.30
2023-04-01T02:35:26.686Z,9.40
2023-04-01T02:37:54.882Z,9.40
2023-04-01T02:40:21.870Z,9.40
2023-04-01T02:42:48.718Z,9.40
2023-04-01T02:45:15.993Z,9.40
2023-04-01T02:47:43.046Z,9.40
2023-04-01T02:50:10.910Z,9.30
2023-04-01T02:52:37.789Z,9.30
2023-04-01T02:55:05.941Z,9.30
2023-04-01T02:57:33.358Z,9.30
2023-04-01T03:00:03.579Z,9.30
2023-04-01T03:02:31.054Z,9.30
2023-04-01T03:04:58.380Z,9.20
2023-04-01T03:07:25.855Z,9.20
2023-04-01T03:09:52.929Z,9.20
2023-04-01T03:12:19.853Z,9.20
2023-04-01T03:14:51.074Z,9.20
2023-04-01T03:17:17.860Z,9.20
2023-04-01T03:19:44.520Z,9.20
2023-04-01T03:22:12.555Z,9.20
2023-04-01T03:24:39.289Z,9.20
2023-04-01T03:27:07.142Z,9.20
2023-04-01T03:29:33.865Z,9.20
2023-04-01T03:32:00.952Z,9.20
2023-04-01T03:34:27.603Z,9.20
2023-04-01T03:36:54.346Z,9.20
2023-04-01T03:39:21.064Z,9.20
2023-04-01T03:41:47.937Z,9.20
2023-04-01T03:44:15.333Z,9.20
2023-04-01T03:46:42.288Z,9.20
2023-04-01T03:49:14.896Z,9.10
2023-04-01T03:51:43.153Z,9.20
2023-04-01T03:54:11.182Z,9.20
2023-04-01T03:56:38.493Z,9.20
2023-04-01T03:59:07.969Z,9.20
2023-04-01T04:01:34.717Z,9.20
2023-04-01T04:04:02.054Z,9.20
2023-04-01T04:06:29.294Z,9.20
2023-04-01T04:08:56.096Z,9.30
2023-04-01T04:11:23.256Z,9.30
2023-04-01T04:13:53.130Z,9.20
2023-04-01T04:16:20.682Z,9.20
2023-04-01T04:18:53.557Z,9.20
2023-04-01T04:21:20.206Z,9.20
2023-04-01T04:23:46.900Z,9.20
2023-04-01T04:26:16.578Z,9.20
2023-04-01T04:28:48.989Z,9.20
2023-04-01T04:31:24.503Z,9.20
2023-04-01T04:33:53.482Z,9.10
2023-04-01T04:36:20.977Z,9.20
2023-04-01T04:38:49.549Z,9.20
2023-04-01T04:41:18.734Z,9.20
2023-04-01T04:43:56.687Z,9.10
2023-04-01T04:46:25.375Z,9.10
2023-04-01T04:48:58.330Z,9.10
2023-04-01T04:51:25.375Z,9.10
2023-04-01T04:53:53.184Z,9.10
2023-04-01T04:56:27.186Z,9.10
2023-04-01T04:59:08.593Z,9.10
2023-04-01T05:01:47.998Z,9.10
2023-04-01T05:04:14.814Z,9.10
2023-04-01T05:06:41.456Z,9.10
2023-04-01T05:09:08.280Z,9.20
2023-04-01T05:11:34.919Z,9.10
2023-04-01T05:14:01.597Z,9.10
2023-04-01T05:16:32.445Z,9.10
2023-04-01T05:19:00.261Z,9.20
2023-04-01T05:21:26.975Z,9.20
2023-04-01T05:23:55.170Z,9.30
2023-04-01T05:26:22.149Z,9.30
2023-04-01T05:28:48.878Z,9.30
2023-04-01T05:31:15.639Z,9.30
2023-04-01T05:33:45.471Z,9.30
2023-04-01T05:36:14.759Z,9.30
2023-04-01T05:38:43.307Z,9.30
2023-04-01T05:41:12.108Z,9.30
2023-04-01T05:43:43.371Z,9.30
2023-04-01T05:46:33.372Z,9.30
2023-04-01T05:49:09.071Z,9.30
2023-04-01T05:51:36.275Z,9.30
2023-04-01T05:54:04.700Z,9.40
2023-04-01T05:56:31.343Z,9.30
2023-04-01T05:58:59.965Z,9.30
2023-04-01T06:01:26.731Z,9.30
2023-04-01T06:03:53.830Z,9.30
2023-04-01T06:06:27.176Z,9.30
2023-04-01T06:09:02.082Z,9.30
2023-04-01T06:11:37.308Z,9.20
2023-04-01T06:14:35.456Z,9.20
2023-04-01T06:17:41.378Z,9.20
2023-04-01T06:20:17.485Z,9.20
2023-04-01T06:23:01.729Z,9.20
2023-04-01T06:25:43.267Z,9.20
2023-04-01T06:28:46.625Z,9.20
2023-04-01T06:31:21.993Z,9.20
2023-04-01T06:34:06.032Z,9.20
2023-04-01T06:36:47.484Z,9.10
2023-04-01T06:39:48.416Z,9.20
2023-04-01T06:42:29.061Z,9.20
2023-04-01T06:45:27.738Z,9.20
2023-04-01T06:48:27.746Z,9.20
2023-04-01T06:51:39.794Z,9.30
2023-04-01T06:54:43.197Z,9.30
2023-04-01T06:57:41.567Z,9.30
2023-04-01T07:00:33.204Z,9.30
2023-04-01T07:03:19.552Z,9.30
2023-04-01T07:05:46.714Z,9.40
2023-04-01T07:08:24.266Z,9.50
2023-04-01T07:11:10.009Z,9.50
2023-04-01T07:13:50.457Z,9.50
2023-04-01T07:16:38.901Z,9.50
2023-04-01T07:19:32.114Z,9.60
2023-04-01T07:22:07.550Z,9.70
2023-04-01T07:24:55.391Z,9.60
2023-04-01T07:27:22.068Z,9.80
2023-04-01T07:29:48.893Z,9.90
2023-04-01T07:33:00.617Z,10.00
2023-04-01T07:35:51.450Z,10.00
2023-04-01T07:38:27.671Z,10.20
2023-04-01T07:41:06.753Z,10.30
2023-04-01T07:43:40.146Z,10.30
2023-04-01T07:46:23.268Z,10.20
2023-04-01T07:49:19.275Z,10.20
2023-04-01T07:51:59.635Z,10.30
2023-04-01T07:54:51.562Z,10.40
2023-04-01T07:57:37.143Z,10.40
2023-04-01T08:00:10.410Z,10.30
2023-04-01T08:03:10.217Z,10.20
2023-04-01T08:05:55.975Z,10.40
2023-04-01T08:08:38.116Z,10.40
2023-04-01T08:11:41.864Z,10.30
2023-04-01T08:14:43.088Z,10.30
2023-04-01T08:17:39.122Z,10.10
2023-04-01T08:20:29.046Z,10.10
2023-04-01T08:23:09.415Z,10.20
2023-04-01T08:25:43.178Z,10.20
2023-04-01T08:28:26.795Z,10.10
2023-04-01T08:31:09.418Z,10.00
2023-04-01T08:33:37.709Z,10.10
2023-04-01T08:36:20.052Z,10.00
2023-04-01T08:38:56.113Z,10.00
2023-04-01T08:41:36.072Z,9.90
2023-04-01T08:44:30.813Z,9.90
2023-04-01T08:47:30.215Z,10.00
2023-04-01T08:50:21.971Z,9.80
2023-04-01T08:53:20.871Z,9.80
2023-04-01T08:56:05.748Z,9.80
2023-04-01T08:59:00.245Z,9.90
2023-04-01T09:01:45.690Z,9.90
2023-04-01T09:05:03.483Z,9.90
2023-04-01T09:08:06.178Z,9.90
2023-04-01T09:11:01.595Z,9.80
2023-04-01T09:14:06.157Z,9.90
2023-04-01T09:17:08.078Z,9.80
2023-04-01T09:20:02.333Z,9.90
2023-04-01T09:22:43.474Z,10.00
2023-04-01T09:25:24.209Z,10.00
2023-04-01T09:28:01.435Z,9.90
2023-04-01T09:30:54.270Z,10.00
2023-04-01T09:33:55.785Z,10.00
2023-04-01T09:37:11.871Z,10.10
2023-04-01T09:39:48.303Z,10.10
2023-04-01T09:42:38.687Z,10.10
2023-04-01T09:45:41.225Z,10.20
2023-04-01T09:48:34.191Z,10.20
2023-04-01T09:51:27.214Z,10.20
2023-04-01T09:54:24.480Z,10.50
2023-04-01T09:57:16.365Z,10.50
2023-04-01T10:00:06.018Z,10.50
2023-04-01T10:03:03.568Z,10.60
2023-04-01T10:05:59.703Z,10.80
2023-04-01T10:09:00.371Z,10.60
2023-04-01T10:11:48.637Z,10.70
2023-04-01T10:14:38.189Z,10.70
2023-04-01T10:17:50.927Z,10.70
2023-04-01T10:20:32.863Z,10.80
2023-04-01T10:23:31.754Z,11.10
2023-04-01T10:26:21.306Z,11.10
2023-04-01T10:29:27.800Z,11.30
2023-04-01T10:32:20.912Z,11.30
2023-04-01T10:34:57.360Z,11.50
2023-04-01T10:38:00.541Z,11.20
2023-04-01T10:40:50.026Z,11.30
2023-04-01T10:44:23.230Z,11.20
2023-04-01T10:47:14.782Z,11.40
2023-04-01T10:50:24.932Z,11.50
2023-04-01T10:53:31.182Z,11.60
2023-04-01T10:56:33.809Z,11.80
2023-04-01T10:59:45.571Z,12.00
2023-04-01T11:03:15.039Z,12.20
2023-04-01T11:06:23.558Z,12.10
2023-04-01T11:09:36.298Z,12.20
2023-04-01T11:12:36.925Z,12.10
2023-04-01T11:15:38.476Z,12.10
2023-04-01T11:18:12.525Z,12.30
2023-04-01T11:20:54.338Z,12.50
2023-04-01T11:23:34.098Z,12.00
2023-04-01T11:26:24.739Z,12.10
2023-04-01T11:29:28.681Z,12.10
2023-04-01T11:32:23.574Z,12.50
2023-04-01T11:35:34.011Z,12.20
2023-04-01T11:38:55.933Z,12.00
2023-04-01T11:41:50.313Z,11.90
2023-04-01T11:44:44.302Z,11.90
2023-04-01T11:47:37.904Z,12.10
2023-04-01T11:50:13.259Z,12.10
2023-04-01T11:53:11.895Z,12.20
2023-04-01T11:55:49.875Z,12.30
2023-04-01T11:58:36.144Z,12.20
2023-04-01T12:01:17.839Z,12.30
2023-04-01T12:04:12.814Z,12.00
2023-04-01T12:06:44.484Z,12.10
2023-04-01T12:09:20.043Z,11.80
2023-04-01T12:12:10.533Z,11.80
2023-04-01T12:14:48.556Z,11.60
2023-04-01T12:17:40.648Z,11.50
2023-04-01T12:20:13.425Z,11.30
2023-04-01T12:22:40.299Z,11.30
2023-04-01T12:25:31.531Z,11.40
2023-04-01T12:28:11.782Z,11.30
2023-04-01T12:31:10.589Z,11.40
2023-04-01T12:33:57.325Z,11.40
2023-04-01T12:36:57.325Z,11.80
2023-04-01T12:39:34.151Z,11.90
2023-04-01T12:42:12.872Z,12.10
2023-04-01T12:45:22.320Z,12.30
2023-04-01T12:47:51.742Z,12.10
2023-04-01T12:50:25.134Z,12.10
2023-04-01T12:53:19.600Z,11.90
2023-04-01T12:55:51.546Z,11.70
2023-04-01T12:58:18.222Z,11.60
2023-04-01T13:01:03.624Z,11.50
2023-04-01T13:03:52.846Z,11.50
2023-04-01T13:06:38.889Z,11.50
2023-04-01T13:09:24.144Z,11.60
2023-04-01T13:12:05.679Z,11.40
2023-04-01T13:15:13.089Z,11.50
2023-04-01T13:18:09.389Z,11.50
2023-04-01T13:20:55.652Z,11.30
2023-04-01T13:24:03.665Z,11.40
2023-04-01T13:27:01.709Z,11.40
2023-04-01T13:29:39.782Z,11.40
2023-04-01T13:32:46.497Z,11.50
2023-04-01T13:35:44.634Z,11.70
2023-04-01T13:38:46.920Z,11.80
2023-04-01T13:41:28.626Z,11.80
2023-04-01T13:44:32.072Z,11.80
2023-04-01T13:47:07.989Z,12.10
2023-04-01T13:49:34.580Z,12.20
2023-04-01T13:52:20.999Z,12.20
2023-04-01T13:55:05.157Z,12.30
2023-04-01T13:57:48.782Z,12.50
2023-04-01T14:00:43.750Z,12.50
2023-04-01T14:03:35.557Z,12.30
2023-04-01T14:06:24.279Z,12.40
2023-04-01T14:09:42.125Z,12.50
2023-04-01T14:12:29.322Z,12.40
2023-04-01T14:15:39.722Z,12.30
2023-04-01T14:18:52.395Z,12.20
2023-04-01T14:21:30.275Z,12.10
2023-04-01T14:24:08.328Z,12.30
2023-04-01T14:27:12.544Z,12.20
2023-04-01T14:30:06.940Z,12.30
2023-04-01T14:32:49.057Z,12.00
2023-04-01T14:35:24.164Z,11.80
2023-04-01T14:38:09.502Z,11.80
2023-04-01T14:40:48.613Z,11.90
2023-04-01T14:43:42.403Z,11.80
2023-04-01T14:46:24.121Z,11.60
2023-04-01T14:48:51.009Z,11.50
2023-04-01T14:51:31.880Z,11.70
2023-04-01T14:54:03.354Z,11.60
2023-04-01T14:56:40.318Z,11.40
2023-04-01T14:59:11.326Z,11.50
2023-04-01T15:01:43.316Z,11.50
2023-04-01T15:04:19.089Z,11.60
2023-04-01T15:06:57.077Z,11.50
2023-04-01T15:09:37.768Z,11.70
2023-04-01T15:12:19.389Z,11.60
2023-04-01T15:15:08.928Z,11.50
2023-04-01T15:17:48.342Z,11.50
2023-04-01T15:20:30.132Z,11.70
2023-04-01T15:22:56.703Z,11.70
2023-04-01T15:25:38.837Z,11.60
2023-04-01T15:28:05.722Z,11.70
2023-04-01T15:30:34.346Z,11.70
2023-04-01T15:33:01.129Z,11.80
2023-04-01T15:35:34.015Z,12.00
2023-04-01T15:38:12.241Z,12.10
2023-04-01T15:40:57.409Z,12.10
2023-04-01T15:43:41.039Z,11.70
2023-04-01T15:46:23.000Z,11.30
2023-04-01T15:49:00.444Z,10.90
2023-04-01T15:51:39.566Z,10.80
2023-04-01T15:54:25.178Z,10.80
2023-04-01T15:56:52.064Z,10.70
2023-04-01T15:59:28.378Z,10.50
2023-04-01T16:02:21.716Z,10.40
2023-04-01T16:04:56.460Z,10.40
2023-04-01T16:07:32.020Z,10.20
2023-04-01T16:10:01.758Z,10.10
2023-04-01T16:12:28.483Z,10.00
2023-04-01T16:15:05.344Z,10.10
2023-04-01T16:17:53.214Z,9.90
2023-04-01T16:20:40.353Z,9.90
2023-04-01T16:23:19.606Z,9.80
2023-04-01T16:25:51.003Z,9.80
2023-04-01T16:28:32.700Z,9.70
2023-04-01T16:31:04.472Z,9.70
2023-04-01T16:33:49.211Z,9.60
2023-04-01T16:36:34.863Z,9.40
2023-04-01T16:39:20.366Z,9.40
2023-04-01T16:41:58.441Z,9.40
2023-04-01T16:44:25.994Z,9.40
2023-04-01T16:47:05.780Z,9.40
2023-04-01T16:49:47.439Z,9.30
2023-04-01T16:52:16.012Z,9.30
2023-04-01T16:54:45.832Z,9.20
2023-04-01T16:57:20.781Z,9.10
2023-04-01T17:00:04.393Z,9.10
2023-04-01T17:02:37.105Z,9.00
2023-04-01T17:05:03.886Z,9.10
2023-04-01T17:07:30.594Z,9.00
2023-04-01T17:10:07.195Z,9.00
2023-04-01T17:12:45.823Z,8.90
2023-04-01T17:15:18.415Z,8.90
2023-04-01T17:18:02.378Z,8.80
2023-04-01T17:20:36.167Z,8.80
2023-04-01T17:23:13.405Z,8.70
2023-04-01T17:25:53.902Z,8.80
2023-04-01T17:28:27.149Z,8.60
2023-04-01T17:31:20.302Z,8.60
2023-04-01T17:34:05.615Z,8.50
2023-04-01T17:36:53.568Z,8.50
2023-04-01T17:39:26.121Z,8.60
2023-04-01T17:42:00.350Z,8.60
2023-04-01T17:44:33.686Z,8.40
2023-04-01T17:47:00.229Z,8.40
2023-04-01T17:49:45.829Z,8.30
2023-04-01T17:52:12.849Z,8.20
2023-04-01T17:54:39.367Z,8.20
2023-04-01T17:57:12.073Z,8.20
2023-04-01T17:59:40.270Z,8.20
2023-04-01T18:02:27.177Z,8.10
2023-04-01T18:05:13.677Z,8.00
2023-04-01T18:08:05.401Z,7.90
2023-04-01T18:10:37.773Z,7.90
2023-04-01T18:13:13.554Z,7.90
2023-04-01T18:15:59.418Z,7.80
2023-04-01T18:18:29.115Z,7.80
2023-04-01T18:21:01.932Z,7.70
2023-04-01T18:23:36.010Z,7.70
2023-04-01T18:26:09.204Z,7.60
2023-04-01T18:28:38.764Z,7.50
2023-04-01T18:31:08.441Z,7.40
2023-04-01T18:33:50.390Z,7.30
2023-04-01T18:36:17.067Z,7.40
2023-04-01T18:38:49.255Z,7.30
2023-04-01T18:41:27.138Z,7.30
2023-04-01T18:43:57.743Z,7.30
2023-04-01T18:46:27.464Z,7.20
2023-04-01T18:49:09.039Z,7.20
2023-04-01T18:51:39.178Z,7.20
2023-04-01T18:54:24.095Z,7.20
2023-04-01T18:56:50.982Z,7.30
2023-04-01T18:59:28.350Z,7.20
2023-04-01T19:02:21.887Z,7.20
2023-04-01T19:04:54.570Z,7.20
2023-04-01T19:07:21.172Z,7.20
2023-04-01T19:09:49.019Z,7.10
2023-04-01T19:12:28.258Z,7.10
2023-04-01T19:15:14.333Z,7.00
2023-04-01T19:17:41.367Z,7.00
2023-04-01T19:20:15.944Z,7.00
2023-04-01T19:22:53.564Z,6.90
2023-04-01T19:25:36.429Z,7.00
2023-04-01T19:28:18.640Z,6.90
2023-04-01T19:30:51.371Z,7.00
2023-04-01T19:33:42.815Z,7.00
2023-04-01T19:36:09.492Z,7.00
2023-04-01T19:38:41.055Z,6.80
2023-04-01T19:41:26.365Z,6.80
2023-04-01T19:44:00.758Z,6.80
2023-04-01T19:46:32.721Z,6.70
2023-04-01T19:49:17.467Z,6.70
2023-04-01T19:51:48.814Z,6.80
2023-04-01T19:54:15.546Z,6.70
2023-04-01T19:56:48.865Z,6.70
2023-04-01T19:59:34.506Z,6.60
2023-04-01T20:02:21.404Z,6.60
2023-04-01T20:04:50.610Z,6.60
2023-04-01T20:07:21.051Z,6.50
2023-04-01T20:10:08.103Z,6.50
2023-04-01T20:12:53.489Z,6.50
2023-04-01T20:15:34.607Z,6.50
2023-04-01T20:18:04.688Z,6.50
2023-04-01T20:20:32.318Z,6.50
2023-04-01T20:23:03.462Z,6.50
2023-04-01T20:25:39.170Z,6.50
2023-04-01T20:28:21.663Z,6.50
2023-04-01T20:30:51.449Z,6.40
2023-04-01T20:33:36.141Z,6.30
2023-04-01T20:36:17.375Z,6.30
2023-04-01T20:38:46.992Z,6.20
2023-04-01T20:41:32.472Z,6.10
2023-04-01T20:44:05.124Z,6.10
2023-04-01T20:46:46.984Z,6.10
2023-04-01T20:49:33.307Z,6.10
2023-04-01T20:52:15.482Z,6.10
2023-04-01T20:54:45.246Z,6.20
2023-04-01T20:57:22.537Z,6.10
2023-04-01T21:00:09.032Z,6.20
2023-04-01T21:02:48.639Z,6.10
2023-04-01T21:05:18.243Z,6.10
2023-04-01T21:07:49.608Z,6.10
2023-04-01T21:10:24.384Z,6.00
2023-04-01T21:13:14.220Z,6.00
2023-04-01T21:15:44.084Z,6.00
2023-04-01T21:18:19.830Z,6.00
2023-04-01T21:20:58.651Z,6.00
2023-04-01T21:23:32.854Z,6.00
2023-04-01T21:26:18.241Z,5.90
2023-04-01T21:28:54.059Z,5.90
2023-04-01T21:31:29.748Z,5.90
2023-04-01T21:34:08.510Z,5.90
2023-04-01T21:36:58.845Z,5.90
2023-04-01T21:39:34.272Z,5.70
2023-04-01T21:42:19.479Z,5.60
2023-04-01T21:44:59.526Z,5.50
2023-04-01T21:47:36.403Z,5.50
2023-04-01T21:50:21.659Z,5.50
2023-04-01T21:53:11.293Z,5.50
2023-04-01T21:55:52.270Z,5.40
2023-04-01T21:58:18.831Z,5.50
2023-04-01T22:00:57.304Z,5.40
2023-04-01T22:03:38.392Z,5.50
2023-04-01T22:06:25.332Z,5.40
2023-04-01T22:08:57.458Z,5.50
2023-04-01T22:11:33.363Z,5.40
2023-04-01T22:14:18.594Z,5.40
2023-04-01T22:16:55.027Z,5.40
2023-04-01T22:19:27.723Z,5.40
2023-04-01T22:22:02.467Z,5.40
2023-04-01T22:24:37.564Z,5.40
2023-04-01T22:27:24.418Z,5.30
2023-04-01T22:30:07.532Z,5.30
2023-04-01T22:32:43.751Z,5.30
2023-04-01T22:35:18.822Z,5.20
2023-04-01T22:38:03.777Z,5.10
2023-04-01T22:40:45.544Z,5.10
2023-04-01T22:43:13.902Z,5.00
2023-04-01T22:46:04.066Z,5.00
2023-04-01T22:48:41.979Z,5.00
2023-04-01T22:51:14.576Z,5.00
2023-04-01T22:53:54.282Z,5.00
2023-04-01T22:56:23.094Z,5.00
2023-04-01T22:59:05.255Z,4.90
2023-04-01T23:01:35.721Z,5.00
2023-04-01T23:04:04.203Z,5.00
2023-04-01T23:06:38.873Z,5.00
2023-04-01T23:09:10.946Z,5.00
2023-04-01T23:11:55.369Z,4.90
2023-04-01T23:14:21.982Z,4.90
2023-04-01T23:16:54.335Z,4.80
2023-04-01T23:19:25.429Z,4.80
2023-04-01T23:21:54.706Z,4.80
2023-04-01T23:24:27.661Z,4.80
2023-04-01T23:27:04.015Z,4.70
2023-04-01T23:29:31.044Z,4.80
2023-04-01T23:31:58.908Z,4.80
2023-04-01T23:34:32.276Z,4.80
2023-04-01T23:37:01.516Z,4.80
2023-04-01T23:39:34.283Z,4.80
2023-04-01T23:42:03.303Z,4.80
2023-04-01T23:44:30.263Z,4.70
2023-04-01T23:46:57.880Z,4.70
2023-04-01T23:49:34.122Z,4.60
2023-04-01T23:52:03.725Z,4.50
2023-04-01T23:54:30.472Z,4.50
2023-04-01T23:56:57.493Z,4.40
2023-04-01T23:59:25.403Z,4.40
